createdAt,value
2022-09-24T00:01:43.185Z,18.95
2022-09-24T00:03:52.157Z,20.73
2022-09-24T00:05:53.813Z,22.45
2022-09-24T00:07:55.254Z,19.15
2022-09-24T00:09:56.702Z,20.83
2022-09-24T00:11:58.209Z,20.95
2022-09-24T00:14:00.252Z,20.88
2022-09-24T00:16:05.879Z,21.13
2022-09-24T00:18:07.955Z,23.75
2022-09-24T00:20:09.559Z,20.17
2022-09-24T00:22:11.096Z,21.48
2022-09-24T00:24:35.039Z,22.05
2022-09-24T00:26:51.951Z,21.40
2022-09-24T00:28:53.381Z,19.48
2022-09-24T00:30:58.386Z,21.08
2022-09-24T00:32:59.904Z,20.23
2022-09-24T00:35:01.392Z,20.05
2022-09-24T00:37:02.955Z,21.80
2022-09-24T00:39:05.469Z,23.42
2022-09-24T00:41:06.990Z,21.73
2022-09-24T00:43:41.226Z,21.13
2022-09-24T00:45:42.680Z,18.77
2022-09-24T00:47:44.864Z,19.42
2022-09-24T00:49:49.309Z,27.25
2022-09-24T00:51:52.947Z,23.17
2022-09-24T00:53:59.179Z,21.52
2022-09-24T00:56:03.006Z,21.05
2022-09-24T00:58:07.224Z,20.58
2022-09-24T01:00:09.705Z,20.48
2022-09-24T01:02:11.980Z,21.95
2022-09-24T01:04:16.252Z,25.95
2022-09-24T01:06:17.716Z,23.05
2022-09-24T01:08:20.636Z,20.70
2022-09-24T01:10:50.953Z,19.30
2022-09-24T01:13:02.073Z,17.35
2022-09-24T01:15:21.494Z,25.50
2022-09-24T01:18:07.985Z,21.92
2022-09-24T01:20:18.447Z,20.45
2022-09-24T01:22:41.703Z,25.42
2022-09-24T01:25:01.906Z,21.10
2022-09-24T01:27:26.595Z,22.00
2022-09-24T01:29:42.191Z,19.40
2022-09-24T01:31:48.892Z,23.35
2022-09-24T01:33:53.575Z,18.27
2022-09-24T01:35:59.329Z,19.75
2022-09-24T01:38:22.967Z,20.40
2022-09-24T01:40:27.649Z,18.35
2022-09-24T01:42:31.170Z,18.33
2022-09-24T01:44:34.815Z,18.00
2022-09-24T01:46:41.290Z,17.95
2022-09-24T01:48:42.934Z,17.60
2022-09-24T01:50:58.662Z,17.90
2022-09-24T01:53:07.434Z,16.23
2022-09-24T01:55:13.782Z,17.27
2022-09-24T01:57:22.502Z,14.93
2022-09-24T02:02:18.134Z,17.08
2022-09-24T02:04:21.571Z,13.27
2022-09-24T02:06:33.556Z,14.27
2022-09-24T02:08:41.072Z,13.15
2022-09-24T02:10:49.982Z,17.60
2022-09-24T02:12:59.604Z,13.40
2022-09-24T02:15:17.416Z,13.60
2022-09-24T02:17:19.265Z,12.93
2022-09-24T02:19:29.127Z,13.25
2022-09-24T02:21:33.321Z,14.32
2022-09-24T02:23:38.507Z,13.85
2022-09-24T02:25:50.610Z,12.68
2022-09-24T02:27:52.095Z,12.57
2022-09-24T02:29:53.575Z,12.32
2022-09-24T02:31:57.685Z,14.80
2022-09-24T02:34:20.576Z,13.25
2022-09-24T02:36:24.860Z,13.23
2022-09-24T02:38:26.328Z,13.82
2022-09-24T02:40:28.015Z,12.90
2022-09-24T02:42:31.371Z,17.65
2022-09-24T02:44:34.124Z,13.07
2022-09-24T02:46:35.613Z,13.32
2022-09-24T02:48:37.354Z,15.27
2022-09-24T02:50:38.777Z,12.98
2022-09-24T02:52:40.205Z,15.85
2022-09-24T02:54:42.599Z,13.07
2022-09-24T02:56:44.020Z,13.07
2022-09-24T02:58:45.491Z,13.48
2022-09-24T03:00:46.973Z,12.40
2022-09-24T03:02:48.591Z,13.23
2022-09-24T03:04:50.894Z,14.63
2022-09-24T03:06:52.403Z,12.57
2022-09-24T03:08:54.674Z,14.63
2022-09-24T03:10:56.235Z,14.25
2022-09-24T03:12:58.177Z,13.90
2022-09-24T03:14:59.599Z,13.30
2022-09-24T03:17:01.249Z,11.95
2022-09-24T03:19:03.157Z,12.07
2022-09-24T03:21:10.557Z,12.30
2022-09-24T03:23:11.997Z,13.25
2022-09-24T03:25:14.713Z,15.98
2022-09-24T03:27:16.257Z,12.60
2022-09-24T03:29:37.662Z,12.93
2022-09-24T03:31:39.188Z,14.18
2022-09-24T03:33:43.464Z,13.25
2022-09-24T03:35:44.927Z,11.60
2022-09-24T03:37:49.185Z,12.18
2022-09-24T03:39:50.851Z,12.70
2022-09-24T03:41:52.277Z,13.68
2022-09-24T03:43:53.994Z,13.20
2022-09-24T03:45:55.765Z,12.50
2022-09-24T03:47:57.195Z,13.07
2022-09-24T03:49:58.749Z,13.82
2022-09-24T03:52:00.186Z,13.50
2022-09-24T03:54:01.678Z,12.00
2022-09-24T03:56:05.610Z,13.48
2022-09-24T03:58:07.047Z,12.73
2022-09-24T04:00:09.247Z,12.00
2022-09-24T04:02:11.933Z,12.63
2022-09-24T04:04:16.248Z,14.45
2022-09-24T04:06:22.092Z,12.32
2022-09-24T04:10:28.683Z,12.88
2022-09-24T04:12:31.120Z,15.25
2022-09-24T04:14:32.569Z,16.00
2022-09-24T04:16:34.145Z,13.02
2022-09-24T04:18:39.052Z,12.63
2022-09-24T04:20:41.627Z,13.88
2022-09-24T04:22:43.079Z,15.40
2022-09-24T04:24:44.650Z,16.85
2022-09-24T04:26:46.080Z,13.50
2022-09-24T04:28:47.512Z,19.70
2022-09-24T04:30:49.095Z,14.65
2022-09-24T04:32:51.535Z,14.75
2022-09-24T04:34:52.961Z,15.70
2022-09-24T04:36:54.377Z,16.88
2022-09-24T04:38:57.149Z,19.45
2022-09-24T04:41:05.381Z,18.33
2022-09-24T04:43:07.198Z,16.45
2022-09-24T04:45:10.113Z,16.33
2022-09-24T04:47:11.650Z,20.30
2022-09-24T04:49:14.191Z,22.70
2022-09-24T04:51:17.637Z,19.80
2022-09-24T04:53:19.424Z,18.67
2022-09-24T04:55:21.737Z,17.55
2022-09-24T04:57:23.394Z,19.58
2022-09-24T04:59:24.891Z,20.58
2022-09-24T05:01:26.719Z,18.38
2022-09-24T05:03:28.193Z,19.85
2022-09-24T05:05:30.477Z,21.30
2022-09-24T05:07:31.901Z,24.50
2022-09-24T05:09:33.552Z,25.65
2022-09-24T05:11:35.051Z,23.42
2022-09-24T05:13:36.478Z,24.88
2022-09-24T05:15:42.375Z,28.00
2022-09-24T05:17:45.268Z,23.65
2022-09-24T05:19:46.727Z,26.48
2022-09-24T05:21:48.587Z,26.08
2022-09-24T05:23:50.035Z,27.10
2022-09-24T05:26:09.975Z,32.38
2022-09-24T05:28:11.402Z,32.35
2022-09-24T05:30:13.329Z,27.85
2022-09-24T05:32:17.467Z,32.20
2022-09-24T05:34:19.111Z,29.73
2022-09-24T05:36:20.604Z,34.05
2022-09-24T05:38:22.032Z,32.92
2022-09-24T05:40:42.739Z,32.72
2022-09-24T05:42:44.202Z,34.38
2022-09-24T05:44:49.806Z,39.72
2022-09-24T05:46:53.581Z,38.33
2022-09-24T05:48:55.818Z,38.53
2022-09-24T05:50:57.354Z,37.28
2022-09-24T05:52:58.778Z,32.67
2022-09-24T05:55:00.226Z,37.50
2022-09-24T05:57:01.666Z,39.25
2022-09-24T05:59:03.525Z,35.33
2022-09-24T06:01:05.058Z,34.92
2022-09-24T06:03:11.929Z,37.53
2022-09-24T06:05:13.638Z,35.33
2022-09-24T06:07:15.056Z,38.35
2022-09-24T06:09:16.475Z,35.40
2022-09-24T06:11:18.790Z,33.65
2022-09-24T06:13:21.040Z,37.95
2022-09-24T06:15:22.687Z,38.75
2022-09-24T06:17:24.113Z,35.33
2022-09-24T06:19:25.588Z,34.00
2022-09-24T06:21:27.030Z,33.47
2022-09-24T06:23:29.229Z,31.95
2022-09-24T06:25:31.294Z,39.72
2022-09-24T06:27:32.774Z,37.83
2022-09-24T06:29:34.293Z,33.00
2022-09-24T06:31:35.831Z,35.22
2022-09-24T06:33:38.101Z,37.90
2022-09-24T06:35:44.457Z,38.90
2022-09-24T06:37:45.978Z,37.85
2022-09-24T06:39:47.438Z,39.58
2022-09-24T06:41:50.338Z,34.17
2022-09-24T06:43:54.570Z,39.60
2022-09-24T06:45:57.689Z,42.55
2022-09-24T06:48:00.995Z,40.65
2022-09-24T06:50:02.446Z,37.22
2022-09-24T06:52:04.867Z,41.67
2022-09-24T06:54:06.352Z,41.33
2022-09-24T06:56:07.869Z,36.70
2022-09-24T06:58:12.084Z,44.25
2022-09-24T07:00:15.488Z,41.53
2022-09-24T07:02:17.185Z,42.55
2022-09-24T07:04:18.672Z,42.63
2022-09-24T07:06:20.231Z,40.80
2022-09-24T07:08:22.508Z,40.03
2022-09-24T07:10:25.222Z,37.20
2022-09-24T07:12:26.810Z,42.63
2022-09-24T07:14:28.231Z,45.55
2022-09-24T07:16:29.716Z,40.45
2022-09-24T07:18:31.178Z,47.80
2022-09-24T07:20:33.590Z,42.20
2022-09-24T07:22:43.104Z,46.42
2022-09-24T07:24:44.822Z,43.03
2022-09-24T07:26:46.283Z,43.47
2022-09-24T07:28:47.804Z,42.97
2022-09-24T07:30:57.337Z,41.13
2022-09-24T07:32:59.070Z,43.60
2022-09-24T07:35:00.538Z,46.08
2022-09-24T07:37:02.051Z,47.47
2022-09-24T07:39:03.669Z,44.25
2022-09-24T07:41:07.956Z,46.47
2022-09-24T07:43:13.799Z,44.65
2022-09-24T07:45:17.349Z,45.95
2022-09-24T07:47:18.836Z,43.75
2022-09-24T07:49:20.333Z,47.50
2022-09-24T07:51:27.528Z,47.53
2022-09-24T07:53:28.960Z,51.33
2022-09-24T07:55:30.379Z,46.63
2022-09-24T07:57:32.020Z,44.85
2022-09-24T07:59:33.510Z,43.58
2022-09-24T08:01:34.994Z,48.08
2022-09-24T08:03:36.605Z,48.85
2022-09-24T08:05:45.592Z,47.20
2022-09-24T08:07:55.199Z,45.60
2022-09-24T08:09:56.760Z,50.28
2022-09-24T08:11:58.251Z,45.60
2022-09-24T08:14:00.618Z,45.15
2022-09-24T08:16:03.207Z,44.85
2022-09-24T08:18:05.698Z,46.47
2022-09-24T08:20:07.562Z,45.20
2022-09-24T08:22:08.980Z,47.50
2022-09-24T08:24:10.462Z,49.03
2022-09-24T08:26:13.056Z,47.55
2022-09-24T08:28:16.985Z,49.45
2022-09-24T08:30:18.614Z,50.33
2022-09-24T08:32:20.046Z,44.13
2022-09-24T08:34:21.596Z,46.08
2022-09-24T08:36:23.048Z,50.72
2022-09-24T08:38:24.466Z,46.92
2022-09-24T08:40:30.193Z,49.67
2022-09-24T08:42:40.089Z,54.17
2022-09-24T08:45:07.420Z,45.42
2022-09-24T08:47:27.272Z,51.10
2022-09-24T08:49:35.273Z,47.88
2022-09-24T08:51:51.176Z,51.22
2022-09-24T08:54:10.348Z,48.33
2022-09-24T08:56:12.519Z,45.50
2022-09-24T08:58:44.360Z,47.15
2022-09-24T09:00:52.043Z,50.60
2022-09-24T09:03:03.823Z,47.78
2022-09-24T09:05:39.487Z,44.35
2022-09-24T09:07:54.791Z,42.60
2022-09-24T09:10:09.721Z,44.67
2022-09-24T09:12:17.742Z,45.25
2022-09-24T09:14:31.175Z,43.80
2022-09-24T09:16:50.447Z,40.47
2022-09-24T09:18:55.939Z,34.38
2022-09-24T09:21:10.430Z,36.25
2022-09-24T09:23:19.280Z,46.88
2022-09-24T09:25:28.453Z,41.58
2022-09-24T09:27:30.048Z,34.58
2022-09-24T09:29:31.878Z,37.17
2022-09-24T09:31:45.880Z,40.60
2022-09-24T09:34:14.152Z,36.47
2022-09-24T09:36:27.074Z,40.47
2022-09-24T09:39:04.792Z,40.28
2022-09-24T09:41:12.051Z,41.03
2022-09-24T09:43:14.796Z,36.85
2022-09-24T09:45:35.193Z,38.67
2022-09-24T09:47:43.539Z,34.28
2022-09-24T09:49:47.285Z,39.83
2022-09-24T09:51:49.926Z,33.15
2022-09-24T09:53:59.444Z,35.08
2022-09-24T09:56:04.845Z,35.00
2022-09-24T09:58:15.379Z,34.88
2022-09-24T10:00:32.971Z,36.65
2022-09-24T10:02:37.645Z,37.17
2022-09-24T10:04:41.434Z,35.33
2022-09-24T10:06:42.868Z,36.97
2022-09-24T10:08:44.318Z,35.15
2022-09-24T10:10:56.812Z,35.10
2022-09-24T10:13:09.209Z,36.88
2022-09-24T10:15:19.047Z,37.17
2022-09-24T10:17:28.341Z,33.42
2022-09-24T10:19:29.891Z,36.83
2022-09-24T10:21:36.972Z,36.03
2022-09-24T10:23:43.897Z,29.77
2022-09-24T10:25:51.526Z,33.00
2022-09-24T10:28:18.692Z,32.88
2022-09-24T10:30:36.109Z,29.52
2022-09-24T10:32:38.280Z,29.10
2022-09-24T10:34:39.710Z,30.23
2022-09-24T10:36:53.618Z,32.03
2022-09-24T10:39:21.660Z,33.65
2022-09-24T10:41:27.354Z,28.27
2022-09-24T10:43:28.928Z,25.58
2022-09-24T10:45:49.640Z,32.38
2022-09-24T10:47:57.908Z,30.55
2022-09-24T10:50:31.539Z,25.27
2022-09-24T10:53:13.414Z,28.35
2022-09-24T10:55:19.249Z,24.58
2022-09-24T10:57:39.715Z,22.55
2022-09-24T11:00:01.101Z,24.95
2022-09-24T11:02:17.595Z,23.00
2022-09-24T11:04:44.039Z,24.13
2022-09-24T11:07:07.183Z,26.73
2022-09-24T11:09:14.564Z,28.70
2022-09-24T11:11:21.902Z,26.00
2022-09-24T11:13:51.702Z,27.85
2022-09-24T11:16:16.607Z,25.02
2022-09-24T11:18:39.117Z,25.90
2022-09-24T11:21:03.018Z,25.98
2022-09-24T11:23:17.073Z,26.98
2022-09-24T11:25:52.611Z,27.17
2022-09-24T11:28:15.704Z,26.70
2022-09-24T11:30:24.940Z,25.00
2022-09-24T11:32:38.404Z,27.73
2022-09-24T11:34:39.800Z,24.85
2022-09-24T11:36:59.374Z,29.50
2022-09-24T11:39:25.475Z,29.23
2022-09-24T11:42:03.968Z,27.52
2022-09-24T11:44:16.783Z,26.50
2022-09-24T11:46:37.011Z,25.10
2022-09-24T11:49:08.829Z,26.05
2022-09-24T11:51:26.410Z,30.65
2022-09-24T11:53:59.999Z,31.23
2022-09-24T11:56:13.182Z,28.80
2022-09-24T11:58:24.017Z,29.10
2022-09-24T12:00:33.867Z,28.38
2022-09-24T12:02:40.207Z,30.73
2022-09-24T12:04:59.174Z,26.65
2022-09-24T12:07:12.801Z,34.70
2022-09-24T12:09:53.716Z,29.40
2022-09-24T12:12:16.218Z,27.52
2022-09-24T12:14:22.746Z,33.15
2022-09-24T12:16:28.534Z,30.77
2022-09-24T12:18:36.623Z,27.58
2022-09-24T12:20:52.670Z,32.97
2022-09-24T12:23:02.245Z,30.90
2022-09-24T12:25:04.658Z,29.23
2022-09-24T12:27:12.406Z,28.05
2022-09-24T12:29:54.139Z,31.23
2022-09-24T12:32:21.408Z,30.08
2022-09-24T12:34:50.813Z,33.03
2022-09-24T12:37:02.522Z,30.13
2022-09-24T12:39:12.900Z,34.50
2022-09-24T12:41:36.428Z,29.55
2022-09-24T12:43:47.840Z,30.55
2022-09-24T12:45:55.641Z,27.60
2022-09-24T12:48:00.280Z,29.38
2022-09-24T12:50:05.018Z,28.65
2022-09-24T12:52:18.895Z,26.48
2022-09-24T12:54:39.060Z,32.65
2022-09-24T12:56:41.016Z,28.60
2022-09-24T12:58:44.831Z,28.83
2022-09-24T13:00:47.248Z,26.95
2022-09-24T13:02:48.838Z,26.33
2022-09-24T13:05:12.060Z,25.33
2022-09-24T13:07:35.241Z,26.13
2022-09-24T13:09:41.244Z,24.05
2022-09-24T13:11:43.286Z,25.80
2022-09-24T13:13:44.834Z,24.90
2022-09-24T13:15:58.070Z,28.58
2022-09-24T13:18:11.386Z,25.33
2022-09-24T13:20:28.242Z,24.25
2022-09-24T13:22:30.729Z,26.30
2022-09-24T13:24:45.761Z,26.85
2022-09-24T13:26:47.246Z,27.42
2022-09-24T13:28:50.979Z,24.85
2022-09-24T13:31:10.668Z,22.88
2022-09-24T13:33:33.377Z,27.25
2022-09-24T13:35:43.235Z,22.23
2022-09-24T13:37:52.522Z,25.27
2022-09-24T13:40:03.534Z,23.48
2022-09-24T13:42:26.482Z,25.17
2022-09-24T13:44:39.405Z,28.30
2022-09-24T13:46:46.483Z,24.10
2022-09-24T13:48:59.709Z,22.98
2022-09-24T13:51:04.277Z,26.25
2022-09-24T13:53:31.871Z,26.05
2022-09-24T13:55:39.785Z,26.73
2022-09-24T13:57:45.679Z,23.92
2022-09-24T13:59:47.171Z,22.67
2022-09-24T14:01:48.670Z,25.80
2022-09-24T14:03:57.258Z,24.00
2022-09-24T14:05:59.776Z,21.65
2022-09-24T14:08:06.448Z,24.38
2022-09-24T14:10:14.194Z,23.10
2022-09-24T14:12:22.284Z,25.87
2022-09-24T14:14:26.724Z,23.63
2022-09-24T14:16:28.243Z,23.75
2022-09-24T14:18:30.003Z,26.63
2022-09-24T14:20:35.174Z,24.05
2022-09-24T14:22:41.107Z,23.17
2022-09-24T14:24:56.424Z,23.95
2022-09-24T14:27:00.826Z,19.75
2022-09-24T14:29:13.244Z,20.73
2022-09-24T14:31:14.874Z,26.08
2022-09-24T14:33:20.179Z,19.73
2022-09-24T14:35:33.094Z,22.45
2022-09-24T14:37:38.708Z,26.27
2022-09-24T14:39:43.300Z,23.83
2022-09-24T14:41:44.859Z,22.70
2022-09-24T14:43:58.406Z,19.13
2022-09-24T14:46:23.716Z,20.38
2022-09-24T14:48:31.930Z,21.67
2022-09-24T14:50:38.873Z,24.35
2022-09-24T14:52:40.577Z,21.70
2022-09-24T14:54:42.037Z,25.90
2022-09-24T14:56:43.632Z,19.77
2022-09-24T14:58:45.109Z,22.92
2022-09-24T15:00:50.027Z,21.98
2022-09-24T15:03:00.026Z,21.23
2022-09-24T15:05:06.433Z,19.95
2022-09-24T15:07:15.994Z,24.58
2022-09-24T15:09:26.136Z,21.75
2022-09-24T15:11:34.405Z,20.27
2022-09-24T15:13:37.713Z,19.52
2022-09-24T15:15:40.008Z,20.48
2022-09-24T15:17:41.524Z,19.45
2022-09-24T15:19:44.024Z,20.70
2022-09-24T15:21:50.339Z,19.95
2022-09-24T15:23:51.829Z,19.35
2022-09-24T15:25:53.333Z,19.73
2022-09-24T15:27:54.965Z,19.90
2022-09-24T15:29:59.498Z,19.60
2022-09-24T15:32:01.370Z,20.02
2022-09-24T15:34:02.846Z,19.35
2022-09-24T15:36:04.531Z,19.02
2022-09-24T15:38:06.397Z,21.38
2022-09-24T15:40:12.737Z,20.63
2022-09-24T15:42:19.434Z,19.38
2022-09-24T15:44:27.119Z,21.25
2022-09-24T15:46:30.065Z,19.77
2022-09-24T15:48:31.566Z,19.08
2022-09-24T15:50:33.633Z,24.08
2022-09-24T15:52:44.750Z,20.55
2022-09-24T15:54:46.174Z,21.58
2022-09-24T15:56:52.330Z,21.27
2022-09-24T15:58:54.302Z,20.88
2022-09-24T16:00:55.765Z,19.23
2022-09-24T16:02:57.981Z,20.27
2022-09-24T16:05:03.507Z,18.00
2022-09-24T16:07:05.699Z,20.63
2022-09-24T16:09:07.156Z,21.67
2022-09-24T16:11:09.402Z,22.60
2022-09-24T16:13:12.165Z,21.45
2022-09-24T16:15:15.839Z,18.15
2022-09-24T16:17:17.273Z,20.48
2022-09-24T16:19:18.770Z,23.48
2022-09-24T16:21:20.447Z,20.98
2022-09-24T16:23:22.014Z,20.45
2022-09-24T16:25:23.735Z,20.08
2022-09-24T16:27:25.174Z,18.25
2022-09-24T16:29:26.708Z,18.98
2022-09-24T16:31:28.187Z,19.63
2022-09-24T16:33:29.678Z,16.98
2022-09-24T16:35:31.140Z,19.02
2022-09-24T16:37:32.559Z,16.73
2022-09-24T16:39:34.395Z,20.73
2022-09-24T16:41:37.796Z,19.75
2022-09-24T16:43:39.387Z,13.82
2022-09-24T16:45:40.824Z,14.45
2022-09-24T16:47:42.250Z,17.13
2022-09-24T16:49:44.414Z,14.68
2022-09-24T16:51:45.834Z,13.63
2022-09-24T16:53:48.952Z,16.17
2022-09-24T16:55:50.608Z,16.98
2022-09-24T16:57:52.854Z,13.48
2022-09-24T16:59:54.281Z,14.88
2022-09-24T17:01:55.828Z,11.98
2022-09-24T17:03:58.783Z,13.70
2022-09-24T17:06:00.335Z,13.45
2022-09-24T17:08:01.852Z,13.93
2022-09-24T17:10:18.375Z,10.18
2022-09-24T17:12:19.951Z,10.30
2022-09-24T17:14:21.475Z,9.07
2022-09-24T17:16:24.788Z,9.65
2022-09-24T17:18:27.481Z,6.65
2022-09-24T17:20:29.689Z,6.30
2022-09-24T17:22:31.175Z,8.77
2022-09-24T17:24:32.752Z,6.38
2022-09-24T17:26:34.531Z,6.07
2022-09-24T17:28:37.073Z,9.40
2022-09-24T17:30:38.519Z,4.03
2022-09-24T17:32:39.947Z,2.97
2022-09-24T17:34:45.644Z,3.30
2022-09-24T17:36:47.671Z,3.33
2022-09-24T17:38:49.169Z,3.10
2022-09-24T17:40:57.042Z,3.08
2022-09-24T17:42:58.472Z,4.90
2022-09-24T17:44:59.896Z,3.15
2022-09-24T17:47:01.498Z,2.67
2022-09-24T17:49:03.259Z,3.20
2022-09-24T17:51:19.983Z,2.78
2022-09-24T17:53:21.439Z,3.28
2022-09-24T17:55:22.977Z,2.83
2022-09-24T17:57:25.486Z,4.90
2022-09-24T17:59:27.297Z,2.72
2022-09-24T18:01:33.429Z,2.30
2022-09-24T18:03:35.440Z,2.53
2022-09-24T18:05:37.834Z,2.25
2022-09-24T18:07:39.294Z,2.15
2022-09-24T18:09:40.773Z,2.60
2022-09-24T18:11:45.238Z,4.22
2022-09-24T18:13:54.274Z,2.33
2022-09-24T18:15:55.803Z,2.60
2022-09-24T18:17:57.612Z,2.42
2022-09-24T18:19:59.392Z,2.55
2022-09-24T18:22:00.822Z,10.00
2022-09-24T18:24:02.789Z,2.33
2022-09-24T18:26:19.170Z,2.10
2022-09-24T18:28:20.647Z,2.17
2022-09-24T18:30:22.126Z,2.78
2022-09-24T18:32:26.110Z,3.22
2022-09-24T18:34:27.637Z,5.63
2022-09-24T18:36:29.418Z,3.97
2022-09-24T18:38:34.316Z,3.17
2022-09-24T18:40:35.815Z,3.40
2022-09-24T18:42:37.329Z,3.15
2022-09-24T18:44:38.837Z,3.35
2022-09-24T18:46:40.467Z,3.30
2022-09-24T18:48:43.638Z,4.07
2022-09-24T18:50:45.667Z,3.63
2022-09-24T18:52:47.113Z,3.80
2022-09-24T18:54:48.775Z,4.20
2022-09-24T18:56:50.532Z,4.03
2022-09-24T18:59:09.686Z,4.80
2022-09-24T19:01:11.559Z,5.03
2022-09-24T19:03:13.088Z,6.00
2022-09-24T19:05:14.563Z,5.80
2022-09-24T19:07:16.038Z,5.72
2022-09-24T19:09:20.260Z,5.68
2022-09-24T19:11:22.846Z,8.80
2022-09-24T19:13:26.504Z,6.10
2022-09-24T19:15:28.554Z,6.43
2022-09-24T19:17:30.034Z,6.32
2022-09-24T19:19:31.704Z,6.82
2022-09-24T19:21:33.266Z,5.97
2022-09-24T19:23:46.892Z,6.13
2022-09-24T19:25:48.344Z,6.63
2022-09-24T19:27:49.755Z,6.80
2022-09-24T19:29:53.718Z,6.50
2022-09-24T19:31:55.189Z,6.82
2022-09-24T19:33:57.313Z,6.32
2022-09-24T19:36:04.935Z,6.43
2022-09-24T19:38:06.372Z,7.75
2022-09-24T19:40:10.068Z,7.72
2022-09-24T19:42:11.604Z,7.05
2022-09-24T19:44:13.687Z,7.93
2022-09-24T19:46:16.969Z,6.28
2022-09-24T19:48:18.468Z,7.32
2022-09-24T19:50:19.943Z,7.93
2022-09-24T19:52:21.486Z,8.77
2022-09-24T19:54:23.089Z,7.43
2022-09-24T19:56:25.442Z,5.68
2022-09-24T19:58:27.512Z,5.90
2022-09-24T20:00:28.964Z,5.35
2022-09-24T20:02:30.511Z,7.22
2022-09-24T20:04:33.715Z,6.40
2022-09-24T20:06:38.504Z,4.50
2022-09-24T20:08:40.188Z,4.60
2022-09-24T20:10:42.201Z,3.85
2022-09-24T20:12:46.604Z,7.55
2022-09-24T20:14:48.029Z,4.05
2022-09-24T20:16:49.819Z,4.43
2022-09-24T20:18:55.590Z,5.75
2022-09-24T20:21:03.447Z,6.13
2022-09-24T20:23:05.532Z,7.95
2022-09-24T20:25:07.392Z,7.25
2022-09-24T20:27:30.008Z,7.28
2022-09-24T20:29:31.425Z,8.18
2022-09-24T20:31:33.349Z,7.95
2022-09-24T20:33:34.866Z,9.68
2022-09-24T20:35:38.195Z,9.57
2022-09-24T20:37:39.642Z,8.95
2022-09-24T20:39:41.057Z,10.45
2022-09-24T20:41:42.874Z,8.90
2022-09-24T20:43:45.833Z,9.55
2022-09-24T20:45:47.352Z,9.95
2022-09-24T20:47:49.859Z,9.70
2022-09-24T20:49:51.298Z,9.65
2022-09-24T20:51:57.350Z,9.50
2022-09-24T20:53:59.882Z,9.80
2022-09-24T20:56:02.079Z,9.75
2022-09-24T20:58:03.568Z,10.73
2022-09-24T21:00:05.762Z,9.27
2022-09-24T21:02:07.341Z,9.45
2022-09-24T21:04:08.916Z,10.52
2022-09-24T21:06:11.801Z,9.57
2022-09-24T21:08:16.612Z,8.18
2022-09-24T21:10:18.721Z,9.95
2022-09-24T21:12:20.644Z,9.55
2022-09-24T21:14:22.215Z,9.88
2022-09-24T21:16:26.640Z,11.90
2022-09-24T21:18:38.352Z,10.20
2022-09-24T21:20:42.496Z,11.88
2022-09-24T21:22:44.016Z,13.00
2022-09-24T21:24:45.977Z,13.55
2022-09-24T21:26:47.664Z,10.95
2022-09-24T21:28:51.872Z,22.25
2022-09-24T21:30:58.167Z,13.02
2022-09-24T21:33:00.353Z,14.05
2022-09-24T21:35:01.882Z,15.25
2022-09-24T21:37:03.959Z,15.95
2022-09-24T21:39:08.654Z,12.95
2022-09-24T21:41:10.155Z,13.82
2022-09-24T21:43:11.663Z,15.40
2022-09-24T21:45:13.860Z,12.63
2022-09-24T21:47:15.308Z,13.63
2022-09-24T21:49:17.364Z,15.23
2022-09-24T21:51:22.910Z,11.32
2022-09-24T21:53:24.367Z,19.80
2022-09-24T21:55:25.821Z,9.45
2022-09-24T21:57:27.252Z,12.63
2022-09-24T21:59:47.237Z,14.07
2022-09-24T22:01:49.195Z,9.23
2022-09-24T22:03:56.070Z,11.15
2022-09-24T22:05:59.586Z,10.25
2022-09-24T22:08:01.219Z,9.82
2022-09-24T22:10:02.728Z,10.05
2022-09-24T22:12:04.568Z,12.02
2022-09-24T22:14:06.207Z,12.55
2022-09-24T22:16:13.326Z,12.02
2022-09-24T22:18:14.812Z,10.27
2022-09-24T22:20:16.308Z,9.45
2022-09-24T22:22:17.734Z,13.45
2022-09-24T22:24:19.200Z,12.45
2022-09-24T22:26:20.784Z,7.72
2022-09-24T22:28:24.469Z,6.35
2022-09-24T22:30:26.024Z,16.40
2022-09-24T22:32:27.485Z,13.90
2022-09-24T22:34:47.813Z,8.43
2022-09-24T22:36:49.282Z,6.97
2022-09-24T22:38:56.365Z,5.50
2022-09-24T22:41:02.185Z,10.15
2022-09-24T22:43:03.616Z,6.50
2022-09-24T22:45:05.597Z,12.25
2022-09-24T22:47:07.032Z,11.07
2022-09-24T22:49:09.216Z,8.10
2022-09-24T22:51:11.047Z,8.60
2022-09-24T22:53:12.470Z,10.57
2022-09-24T22:55:14.596Z,11.63
2022-09-24T22:57:16.132Z,11.98
2022-09-24T22:59:17.532Z,9.45
2022-09-24T23:01:23.047Z,11.30
2022-09-24T23:03:24.746Z,13.32
2022-09-24T23:05:26.256Z,11.32
2022-09-24T23:07:27.772Z,7.30
2022-09-24T23:09:29.223Z,7.45
2022-09-24T23:11:33.095Z,9.82
2022-09-24T23:13:35.326Z,10.40
2022-09-24T23:15:36.848Z,13.02
2022-09-24T23:17:38.349Z,10.73
2022-09-24T23:19:48.660Z,10.02
2022-09-24T23:21:50.105Z,8.70
2022-09-24T23:23:59.937Z,11.55
2022-09-24T23:26:08.081Z,9.95
2022-09-24T23:28:09.509Z,9.68
2022-09-24T23:30:11.209Z,8.43
2022-09-24T23:32:14.307Z,10.07
2022-09-24T23:34:15.749Z,5.30
2022-09-24T23:36:18.103Z,7.45
2022-09-24T23:38:19.738Z,8.00
2022-09-24T23:40:21.255Z,7.32
2022-09-24T23:42:23.636Z,8.38
2022-09-24T23:44:25.101Z,7.68
2022-09-24T23:46:27.434Z,8.65
2022-09-24T23:48:29.691Z,9.02
2022-09-24T23:50:31.140Z,8.75
2022-09-24T23:52:32.610Z,7.90
2022-09-24T23:54:36.437Z,9.20
2022-09-24T23:56:38.108Z,8.13
2022-09-24T23:58:41.989Z,6.70
